Alma, IL (62807)

05:48 PM CST del 26 Febbraio 2017 (GMT -0600)
Alma Park | | Change Station

Alt. 640 ft 38.72 °N, 88.91 °W | Updated 9 seconds ago

Coperto
Coperto
45.0 °F
Sembra 43 °F
N
4.0
Vento Variabile Vento da SSO

Oggi
Massima -- | Minima -- °F
--% Possibilità di precip.
Ieri
Massima -- | Minima -- °F
Precip. -- in
Pressione 30.10 in
Visibilità 10.0 miglia
Nuvole Coperto 7000 ft
Raffreddamento del vento 43 °F
Punto di rugiada 26 °F
Umidità 46%
Piovosità 0.00 in
Spessore del manto nevoso Non disponibile.
6:31 AM 5:45 PM
Luna nuova, 0% visible
METAR KSLO 262335Z AUTO 21013KT 10SM OVC070 09/M06 A3010 RMK AO2 T00851059
Pressione 30.10 in
Visibilità 10.0 miglia
Nuvole Coperto 7000 ft
Raffreddamento del vento 43 °F
Punto di rugiada 26 °F
Umidità 46%
Piovosità 0.00 in
Spessore del manto nevoso Non disponibile.
6:31 AM 5:45 PM
Luna nuova, 0% visible
METAR KSLO 262335Z AUTO 21013KT 10SM OVC070 09/M06 A3010 RMK AO2 T00851059

Get Your Daily Forecast Email!

Thanks for signing up!

Be on the lookout for a verification email in your inbox.

You'll start receiving the daily forecast at 8 AM.

×

10-Day Weather Forecast

Almanac

Astronomia

Feb. 26, 2017 Alba Tramonto
Ora attuale
Crepuscolo civile
Crepuscolo nautico
Crepuscolo astronomico
Luna
Estensione della luce visibile
Lunghezza del giorno
Tomorrow will be .
, % of the Moon is Illuminated

Gli estremi di oggi

State Highs State Lows

Community

WunderPhotos

Upload Photos

1,962,540 foto caricate!

WunderBlog® & News

Nearby

Qualità dell'aria

  Qualità dell'aria Indice AQ Inquinante
Not available.

Profondità neve

Stazione Profondità Altitudine

Attività sismica

Città  Distanza Mag. Data & Ora
Minimo Magnitudo Mostrato è 2.5.

Temperature delle acque costiere

Località Temperatura

Stations

Stazioni meteo nelle vicinanze

Ubicazione della stazione Temp. Raffreddamento del vento Punto di rugiada Umidità Vento Precip. Alt. Aggiornato Tipo
                   

Watches & Warnings

There are currently no watches in effect.